sensor_id;sensor_type;location;lat;lon;timestamp;temperature;humidity
77056;SHT30;67471;44.918;8.614;2023-09-08T00:03:02;24.44;60.40
77056;SHT30;67471;44.918;8.614;2023-09-08T00:06:06;24.38;60.70
77056;SHT30;67471;44.918;8.614;2023-09-08T00:09:10;24.37;60.97
77056;SHT30;67471;44.918;8.614;2023-09-08T00:12:13;24.31;61.14
77056;SHT30;67471;44.918;8.614;2023-09-08T00:15:17;24.30;61.28
77056;SHT30;67471;44.918;8.614;2023-09-08T00:18:20;24.18;61.58
77056;SHT30;67471;44.918;8.614;2023-09-08T00:21:25;24.17;62.02
77056;SHT30;67471;44.918;8.614;2023-09-08T00:24:28;24.14;61.97
77056;SHT30;67471;44.918;8.614;2023-09-08T00:27:31;24.23;62.10
77056;SHT30;67471;44.918;8.614;2023-09-08T00:30:35;24.10;62.39
77056;SHT30;67471;44.918;8.614;2023-09-08T00:33:38;24.12;62.57
77056;SHT30;67471;44.918;8.614;2023-09-08T00:36:42;24.07;62.76
77056;SHT30;67471;44.918;8.614;2023-09-08T00:39:46;24.09;62.71
77056;SHT30;67471;44.918;8.614;2023-09-08T00:42:49;24.00;63.00
77056;SHT30;67471;44.918;8.614;2023-09-08T00:45:53;23.99;62.98
77056;SHT30;67471;44.918;8.614;2023-09-08T00:48:57;23.97;63.20
77056;SHT30;67471;44.918;8.614;2023-09-08T00:52:01;23.95;63.12
77056;SHT30;67471;44.918;8.614;2023-09-08T00:55:05;23.90;63.29
77056;SHT30;67471;44.918;8.614;2023-09-08T00:58:09;23.95;63.18
77056;SHT30;67471;44.918;8.614;2023-09-08T01:01:14;23.79;63.61
77056;SHT30;67471;44.918;8.614;2023-09-08T01:04:17;23.96;63.30
77056;SHT30;67471;44.918;8.614;2023-09-08T01:07:21;23.87;63.55
77056;SHT30;67471;44.918;8.614;2023-09-08T01:10:25;23.80;63.92
77056;SHT30;67471;44.918;8.614;2023-09-08T01:13:28;23.83;63.90
77056;SHT30;67471;44.918;8.614;2023-09-08T01:16:31;23.77;64.19
77056;SHT30;67471;44.918;8.614;2023-09-08T01:19:34;23.70;64.73
77056;SHT30;67471;44.918;8.614;2023-09-08T01:25:46;23.61;64.42
77056;SHT30;67471;44.918;8.614;2023-09-08T01:28:53;23.55;64.33
77056;SHT30;67471;44.918;8.614;2023-09-08T01:31:58;23.48;64.52
77056;SHT30;67471;44.918;8.614;2023-09-08T01:35:03;23.34;64.79
77056;SHT30;67471;44.918;8.614;2023-09-08T01:38:06;23.27;64.69
77056;SHT30;67471;44.918;8.614;2023-09-08T01:41:10;23.27;64.07
77056;SHT30;67471;44.918;8.614;2023-09-08T01:44:14;23.11;64.22
77056;SHT30;67471;44.918;8.614;2023-09-08T01:47:17;23.11;64.33
77056;SHT30;67471;44.918;8.614;2023-09-08T01:50:21;22.96;64.45
77056;SHT30;67471;44.918;8.614;2023-09-08T01:53:25;22.83;64.74
77056;SHT30;67471;44.918;8.614;2023-09-08T01:56:29;22.76;64.91
77056;SHT30;67471;44.918;8.614;2023-09-08T01:59:33;22.73;64.94
77056;SHT30;67471;44.918;8.614;2023-09-08T02:02:37;22.67;64.89
77056;SHT30;67471;44.918;8.614;2023-09-08T02:05:40;22.59;65.13
77056;SHT30;67471;44.918;8.614;2023-09-08T02:08:44;22.47;65.56
77056;SHT30;67471;44.918;8.614;2023-09-08T02:11:47;22.49;65.49
77056;SHT30;67471;44.918;8.614;2023-09-08T02:14:50;22.53;65.45
77056;SHT30;67471;44.918;8.614;2023-09-08T02:17:55;22.49;65.44
77056;SHT30;67471;44.918;8.614;2023-09-08T02:21:00;22.47;65.49
77056;SHT30;67471;44.918;8.614;2023-09-08T02:24:03;22.47;65.42
77056;SHT30;67471;44.918;8.614;2023-09-08T02:27:07;22.40;65.58
77056;SHT30;67471;44.918;8.614;2023-09-08T02:30:10;22.43;65.32
77056;SHT30;67471;44.918;8.614;2023-09-08T02:33:14;22.28;65.72
77056;SHT30;67471;44.918;8.614;2023-09-08T02:36:17;22.35;65.57
77056;SHT30;67471;44.918;8.614;2023-09-08T02:39:21;22.30;65.50
77056;SHT30;67471;44.918;8.614;2023-09-08T02:42:26;22.28;65.54
77056;SHT30;67471;44.918;8.614;2023-09-08T02:45:33;22.29;65.52
77056;SHT30;67471;44.918;8.614;2023-09-08T02:48:36;22.28;65.45
77056;SHT30;67471;44.918;8.614;2023-09-08T02:51:39;22.20;65.56
77056;SHT30;67471;44.918;8.614;2023-09-08T02:54:43;22.30;65.47
77056;SHT30;67471;44.918;8.614;2023-09-08T02:57:46;22.20;65.83
77056;SHT30;67471;44.918;8.614;2023-09-08T03:00:50;22.23;65.55
77056;SHT30;67471;44.918;8.614;2023-09-08T03:03:55;22.23;65.62
77056;SHT30;67471;44.918;8.614;2023-09-08T03:06:58;22.25;65.79
77056;SHT30;67471;44.918;8.614;2023-09-08T03:10:02;22.22;65.84
77056;SHT30;67471;44.918;8.614;2023-09-08T03:13:06;22.28;65.74
77056;SHT30;67471;44.918;8.614;2023-09-08T03:16:10;22.19;65.84
77056;SHT30;67471;44.918;8.614;2023-09-08T03:19:14;22.12;66.13
77056;SHT30;67471;44.918;8.614;2023-09-08T03:22:17;22.09;66.20
77056;SHT30;67471;44.918;8.614;2023-09-08T03:25:20;22.08;66.37
77056;SHT30;67471;44.918;8.614;2023-09-08T03:28:24;22.12;66.20
77056;SHT30;67471;44.918;8.614;2023-09-08T03:31:27;21.99;66.57
77056;SHT30;67471;44.918;8.614;2023-09-08T03:34:31;22.05;66.52
77056;SHT30;67471;44.918;8.614;2023-09-08T03:37:35;22.05;66.66
77056;SHT30;67471;44.918;8.614;2023-09-08T03:40:38;22.04;66.60
77056;SHT30;67471;44.918;8.614;2023-09-08T03:43:42;22.06;66.64
77056;SHT30;67471;44.918;8.614;2023-09-08T03:46:46;21.99;66.91
77056;SHT30;67471;44.918;8.614;2023-09-08T03:49:51;21.95;67.43
77056;SHT30;67471;44.918;8.614;2023-09-08T03:52:55;21.92;67.48
77056;SHT30;67471;44.918;8.614;2023-09-08T03:55:58;21.91;67.51
77056;SHT30;67471;44.918;8.614;2023-09-08T03:59:02;21.89;67.77
77056;SHT30;67471;44.918;8.614;2023-09-08T04:02:06;21.81;68.33
77056;SHT30;67471;44.918;8.614;2023-09-08T04:05:09;21.74;68.52
77056;SHT30;67471;44.918;8.614;2023-09-08T04:08:14;21.75;68.55
77056;SHT30;67471;44.918;8.614;2023-09-08T04:11:17;21.69;68.56
77056;SHT30;67471;44.918;8.614;2023-09-08T04:14:20;21.69;68.64
77056;SHT30;67471;44.918;8.614;2023-09-08T04:17:24;21.75;68.14
77056;SHT30;67471;44.918;8.614;2023-09-08T04:20:28;21.69;68.13
77056;SHT30;67471;44.918;8.614;2023-09-08T04:23:31;21.62;68.22
77056;SHT30;67471;44.918;8.614;2023-09-08T04:26:34;21.58;68.51
77056;SHT30;67471;44.918;8.614;2023-09-08T04:29:37;21.57;68.46
77056;SHT30;67471;44.918;8.614;2023-09-08T04:32:41;21.55;68.43
77056;SHT30;67471;44.918;8.614;2023-09-08T04:35:45;21.54;68.34
77056;SHT30;67471;44.918;8.614;2023-09-08T04:38:48;21.59;68.24
77056;SHT30;67471;44.918;8.614;2023-09-08T04:41:51;21.51;68.46
77056;SHT30;67471;44.918;8.614;2023-09-08T04:44:55;21.41;68.73
77056;SHT30;67471;44.918;8.614;2023-09-08T04:47:59;21.48;68.24
77056;SHT30;67471;44.918;8.614;2023-09-08T04:51:02;21.47;68.11
77056;SHT30;67471;44.918;8.614;2023-09-08T04:54:07;21.44;68.26
77056;SHT30;67471;44.918;8.614;2023-09-08T04:57:11;21.51;68.02
77056;SHT30;67471;44.918;8.614;2023-09-08T05:00:15;21.53;67.78
77056;SHT30;67471;44.918;8.614;2023-09-08T05:03:18;21.40;68.15
77056;SHT30;67471;44.918;8.614;2023-09-08T05:06:22;21.46;68.02
77056;SHT30;67471;44.918;8.614;2023-09-08T05:09:26;21.48;68.01
77056;SHT30;67471;44.918;8.614;2023-09-08T05:12:29;21.53;67.85
77056;SHT30;67471;44.918;8.614;2023-09-08T05:15:33;21.46;67.99
77056;SHT30;67471;44.918;8.614;2023-09-08T05:18:40;21.57;67.71
77056;SHT30;67471;44.918;8.614;2023-09-08T05:21:44;21.51;68.31
77056;SHT30;67471;44.918;8.614;2023-09-08T05:24:48;21.54;68.63
77056;SHT30;67471;44.918;8.614;2023-09-08T05:27:52;21.57;68.63
77056;SHT30;67471;44.918;8.614;2023-09-08T05:30:55;21.43;68.87
77056;SHT30;67471;44.918;8.614;2023-09-08T05:33:59;21.48;68.52
77056;SHT30;67471;44.918;8.614;2023-09-08T05:37:03;21.47;68.51
77056;SHT30;67471;44.918;8.614;2023-09-08T05:40:07;21.58;68.25
77056;SHT30;67471;44.918;8.614;2023-09-08T05:43:10;21.53;68.65
77056;SHT30;67471;44.918;8.614;2023-09-08T05:46:14;21.59;68.56
77056;SHT30;67471;44.918;8.614;2023-09-08T05:49:19;21.68;68.32
77056;SHT30;67471;44.918;8.614;2023-09-08T05:52:22;21.71;67.91
77056;SHT30;67471;44.918;8.614;2023-09-08T05:55:26;21.65;68.13
77056;SHT30;67471;44.918;8.614;2023-09-08T05:58:29;21.57;68.70
77056;SHT30;67471;44.918;8.614;2023-09-08T06:01:34;21.55;68.33
77056;SHT30;67471;44.918;8.614;2023-09-08T06:04:39;21.73;67.57
77056;SHT30;67471;44.918;8.614;2023-09-08T06:07:44;21.99;66.45
77056;SHT30;67471;44.918;8.614;2023-09-08T06:10:47;22.45;65.19
77056;SHT30;67471;44.918;8.614;2023-09-08T06:13:51;22.87;63.96
77056;SHT30;67471;44.918;8.614;2023-09-08T06:16:56;23.31;62.51
77056;SHT30;67471;44.918;8.614;2023-09-08T06:20:00;23.67;61.22
77056;SHT30;67471;44.918;8.614;2023-09-08T06:23:04;24.09;60.21
77056;SHT30;67471;44.918;8.614;2023-09-08T06:26:08;24.63;58.50
77056;SHT30;67471;44.918;8.614;2023-09-08T06:29:13;25.08;57.02
77056;SHT30;67471;44.918;8.614;2023-09-08T06:32:19;25.43;56.47
77056;SHT30;67471;44.918;8.614;2023-09-08T06:35:25;26.15;54.92
77056;SHT30;67471;44.918;8.614;2023-09-08T06:38:29;26.90;53.26
77056;SHT30;67471;44.918;8.614;2023-09-08T06:41:36;27.65;51.32
77056;SHT30;67471;44.918;8.614;2023-09-08T06:44:42;28.09;49.85
77056;SHT30;67471;44.918;8.614;2023-09-08T06:47:45;28.59;48.87
77056;SHT30;67471;44.918;8.614;2023-09-08T06:50:48;29.16;47.43
77056;SHT30;67471;44.918;8.614;2023-09-08T06:53:56;29.36;46.79
77056;SHT30;67471;44.918;8.614;2023-09-08T06:57:01;29.16;47.46
77056;SHT30;67471;44.918;8.614;2023-09-08T07:00:05;29.79;45.99
77056;SHT30;67471;44.918;8.614;2023-09-08T07:03:11;30.32;45.22
77056;SHT30;67471;44.918;8.614;2023-09-08T07:06:15;31.03;43.84
77056;SHT30;67471;44.918;8.614;2023-09-08T07:09:20;30.83;44.26
77056;SHT30;67471;44.918;8.614;2023-09-08T07:12:24;31.39;43.31
77056;SHT30;67471;44.918;8.614;2023-09-08T07:15:46;32.12;42.18
77056;SHT30;67471;44.918;8.614;2023-09-08T07:18:50;32.35;41.70
77056;SHT30;67471;44.918;8.614;2023-09-08T07:21:54;32.66;40.99
77056;SHT30;67471;44.918;8.614;2023-09-08T07:24:58;32.75;41.05
77056;SHT30;67471;44.918;8.614;2023-09-08T07:28:01;32.89;40.82
77056;SHT30;67471;44.918;8.614;2023-09-08T07:31:05;33.20;40.45
77056;SHT30;67471;44.918;8.614;2023-09-08T07:34:13;32.95;40.78
77056;SHT30;67471;44.918;8.614;2023-09-08T07:37:16;33.03;40.64
77056;SHT30;67471;44.918;8.614;2023-09-08T07:40:20;32.89;41.53
77056;SHT30;67471;44.918;8.614;2023-09-08T07:43:24;33.57;40.27
77056;SHT30;67471;44.918;8.614;2023-09-08T07:46:28;33.62;39.96
77056;SHT30;67471;44.918;8.614;2023-09-08T07:49:35;34.15;39.30
77056;SHT30;67471;44.918;8.614;2023-09-08T07:52:39;34.46;38.81
77056;SHT30;67471;44.918;8.614;2023-09-08T07:55:42;34.66;38.48
77056;SHT30;67471;44.918;8.614;2023-09-08T07:58:45;34.91;38.31
77056;SHT30;67471;44.918;8.614;2023-09-08T08:01:49;34.40;38.65
77056;SHT30;67471;44.918;8.614;2023-09-08T08:04:52;33.91;39.85
77056;SHT30;67471;44.918;8.614;2023-09-08T08:07:55;33.92;39.37
77056;SHT30;67471;44.918;8.614;2023-09-08T08:10:59;33.91;39.65
77056;SHT30;67471;44.918;8.614;2023-09-08T08:14:03;34.43;38.63
77056;SHT30;67471;44.918;8.614;2023-09-08T08:17:07;34.64;37.95
77056;SHT30;67471;44.918;8.614;2023-09-08T08:20:10;34.88;37.28
77056;SHT30;67471;44.918;8.614;2023-09-08T08:23:20;34.64;37.84
77056;SHT30;67471;44.918;8.614;2023-09-08T08:26:23;34.60;37.74
77056;SHT30;67471;44.918;8.614;2023-09-08T08:29:30;34.36;38.22
77056;SHT30;67471;44.918;8.614;2023-09-08T08:32:34;34.32;38.03
77056;SHT30;67471;44.918;8.614;2023-09-08T08:35:37;34.01;38.80
77056;SHT30;67471;44.918;8.614;2023-09-08T08:38:43;34.02;38.72
77056;SHT30;67471;44.918;8.614;2023-09-08T08:41:47;34.45;38.26
77056;SHT30;67471;44.918;8.614;2023-09-08T08:44:51;34.63;37.44
77056;SHT30;67471;44.918;8.614;2023-09-08T08:47:55;34.32;38.20
77056;SHT30;67471;44.918;8.614;2023-09-08T08:50:59;34.36;38.13
77056;SHT30;67471;44.918;8.614;2023-09-08T08:54:03;34.79;37.18
77056;SHT30;67471;44.918;8.614;2023-09-08T08:57:08;34.61;37.55
77056;SHT30;67471;44.918;8.614;2023-09-08T09:00:11;34.90;37.42
77056;SHT30;67471;44.918;8.614;2023-09-08T09:03:16;34.83;37.01
77056;SHT30;67471;44.918;8.614;2023-09-08T09:06:19;34.40;37.42
77056;SHT30;67471;44.918;8.614;2023-09-08T09:09:23;34.29;38.04
77056;SHT30;67471;44.918;8.614;2023-09-08T09:12:27;34.60;37.25
77056;SHT30;67471;44.918;8.614;2023-09-08T09:15:31;34.68;37.59
77056;SHT30;67471;44.918;8.614;2023-09-08T09:21:59;35.25;35.93
77056;SHT30;67471;44.918;8.614;2023-09-08T09:25:03;35.13;36.81
77056;SHT30;67471;44.918;8.614;2023-09-08T09:28:10;35.27;36.00
77056;SHT30;67471;44.918;8.614;2023-09-08T09:31:13;35.08;36.46
77056;SHT30;67471;44.918;8.614;2023-09-08T09:34:17;35.11;36.26
77056;SHT30;67471;44.918;8.614;2023-09-08T09:37:20;35.32;36.18
77056;SHT30;67471;44.918;8.614;2023-09-08T09:40:27;35.37;35.94
77056;SHT30;67471;44.918;8.614;2023-09-08T09:43:30;35.55;35.94
77056;SHT30;67471;44.918;8.614;2023-09-08T09:46:34;35.54;35.69
77056;SHT30;67471;44.918;8.614;2023-09-08T09:49:47;35.66;35.29
77056;SHT30;67471;44.918;8.614;2023-09-08T09:52:50;35.23;35.88
77056;SHT30;67471;44.918;8.614;2023-09-08T09:55:54;34.84;35.83
77056;SHT30;67471;44.918;8.614;2023-09-08T09:58:58;34.94;36.33
77056;SHT30;67471;44.918;8.614;2023-09-08T10:02:02;35.11;34.94
77056;SHT30;67471;44.918;8.614;2023-09-08T10:05:12;35.54;34.67
77056;SHT30;67471;44.918;8.614;2023-09-08T10:08:16;35.68;34.04
77056;SHT30;67471;44.918;8.614;2023-09-08T10:11:21;35.62;33.56
77056;SHT30;67471;44.918;8.614;2023-09-08T10:14:25;35.01;35.15
77056;SHT30;67471;44.918;8.614;2023-09-08T10:17:30;35.07;35.00
77056;SHT30;67471;44.918;8.614;2023-09-08T10:20:34;34.97;34.67
77056;SHT30;67471;44.918;8.614;2023-09-08T10:23:38;35.07;34.88
77056;SHT30;67471;44.918;8.614;2023-09-08T10:26:44;34.97;34.12
77056;SHT30;67471;44.918;8.614;2023-09-08T10:29:49;34.88;34.41
77056;SHT30;67471;44.918;8.614;2023-09-08T10:32:53;34.83;34.71
77056;SHT30;67471;44.918;8.614;2023-09-08T10:35:57;34.77;34.72
77056;SHT30;67471;44.918;8.614;2023-09-08T10:42:24;34.97;33.32
77056;SHT30;67471;44.918;8.614;2023-09-08T10:45:28;35.08;33.23
77056;SHT30;67471;44.918;8.614;2023-09-08T10:48:40;34.86;33.37
77056;SHT30;67471;44.918;8.614;2023-09-08T10:51:43;34.91;32.91
77056;SHT30;67471;44.918;8.614;2023-09-08T10:54:48;34.76;33.86
77056;SHT30;67471;44.918;8.614;2023-09-08T10:57:52;34.71;34.06
77056;SHT30;67471;44.918;8.614;2023-09-08T11:00:58;34.64;34.13
77056;SHT30;67471;44.918;8.614;2023-09-08T11:04:04;34.77;33.91
77056;SHT30;67471;44.918;8.614;2023-09-08T11:07:11;34.63;34.01
77056;SHT30;67471;44.918;8.614;2023-09-08T11:10:14;34.60;34.32
77056;SHT30;67471;44.918;8.614;2023-09-08T11:13:18;34.61;33.63
77056;SHT30;67471;44.918;8.614;2023-09-08T11:16:22;34.46;33.50
77056;SHT30;67471;44.918;8.614;2023-09-08T11:19:42;34.35;33.94
77056;SHT30;67471;44.918;8.614;2023-09-08T11:22:46;34.39;33.82
77056;SHT30;67471;44.918;8.614;2023-09-08T11:25:51;34.35;33.84
77056;SHT30;67471;44.918;8.614;2023-09-08T11:28:55;34.33;33.99
77056;SHT30;67471;44.918;8.614;2023-09-08T11:32:00;34.02;33.52
77056;SHT30;67471;44.918;8.614;2023-09-08T11:35:07;33.88;34.48
77056;SHT30;67471;44.918;8.614;2023-09-08T11:38:13;34.02;34.44
77056;SHT30;67471;44.918;8.614;2023-09-08T11:41:16;34.09;34.15
77056;SHT30;67471;44.918;8.614;2023-09-08T11:44:19;33.84;34.64
77056;SHT30;67471;44.918;8.614;2023-09-08T11:47:23;33.78;34.54
77056;SHT30;67471;44.918;8.614;2023-09-08T11:50:28;33.64;34.56
77056;SHT30;67471;44.918;8.614;2023-09-08T11:53:31;33.62;34.55
77056;SHT30;67471;44.918;8.614;2023-09-08T11:56:36;33.62;34.76
77056;SHT30;67471;44.918;8.614;2023-09-08T11:59:40;33.64;34.08
77056;SHT30;67471;44.918;8.614;2023-09-08T12:02:44;33.58;33.36
77056;SHT30;67471;44.918;8.614;2023-09-08T12:05:50;33.54;32.76
77056;SHT30;67471;44.918;8.614;2023-09-08T12:09:00;33.37;33.69
77056;SHT30;67471;44.918;8.614;2023-09-08T12:12:10;32.89;35.24
77056;SHT30;67471;44.918;8.614;2023-09-08T12:18:39;32.70;35.39
77056;SHT30;67471;44.918;8.614;2023-09-08T12:21:56;32.59;35.56
77056;SHT30;67471;44.918;8.614;2023-09-08T12:24:59;32.45;35.62
77056;SHT30;67471;44.918;8.614;2023-09-08T12:28:05;32.49;35.65
77056;SHT30;67471;44.918;8.614;2023-09-08T12:31:09;32.63;36.01
77056;SHT30;67471;44.918;8.614;2023-09-08T12:34:12;32.82;35.75
77056;SHT30;67471;44.918;8.614;2023-09-08T12:37:20;32.95;35.41
77056;SHT30;67471;44.918;8.614;2023-09-08T12:40:24;32.96;35.45
77056;SHT30;67471;44.918;8.614;2023-09-08T12:43:28;32.87;35.67
77056;SHT30;67471;44.918;8.614;2023-09-08T12:46:32;32.93;36.08
77056;SHT30;67471;44.918;8.614;2023-09-08T12:49:39;32.89;35.65
77056;SHT30;67471;44.918;8.614;2023-09-08T12:52:43;32.91;35.34
77056;SHT30;67471;44.918;8.614;2023-09-08T12:55:46;33.00;35.35
77056;SHT30;67471;44.918;8.614;2023-09-08T12:58:50;33.06;35.29
77056;SHT30;67471;44.918;8.614;2023-09-08T13:01:53;33.10;35.23
77056;SHT30;67471;44.918;8.614;2023-09-08T13:04:57;33.11;35.06
77056;SHT30;67471;44.918;8.614;2023-09-08T13:08:01;33.02;34.89
77056;SHT30;67471;44.918;8.614;2023-09-08T13:11:04;32.93;35.31
77056;SHT30;67471;44.918;8.614;2023-09-08T13:14:08;32.87;34.90
77056;SHT30;67471;44.918;8.614;2023-09-08T13:17:12;32.70;35.63
77056;SHT30;67471;44.918;8.614;2023-09-08T13:20:15;32.72;35.65
77056;SHT30;67471;44.918;8.614;2023-09-08T13:23:19;32.59;35.98
77056;SHT30;67471;44.918;8.614;2023-09-08T13:26:22;32.60;36.15
77056;SHT30;67471;44.918;8.614;2023-09-08T13:29:26;32.75;35.88
77056;SHT30;67471;44.918;8.614;2023-09-08T13:32:33;32.84;35.35
77056;SHT30;67471;44.918;8.614;2023-09-08T13:35:36;32.93;35.19
77056;SHT30;67471;44.918;8.614;2023-09-08T13:38:41;32.86;35.29
77056;SHT30;67471;44.918;8.614;2023-09-08T13:44:51;32.69;35.42
77056;SHT30;67471;44.918;8.614;2023-09-08T13:47:55;32.63;35.71
77056;SHT30;67471;44.918;8.614;2023-09-08T13:51:02;32.60;35.85
77056;SHT30;67471;44.918;8.614;2023-09-08T13:54:07;32.60;35.85
77056;SHT30;67471;44.918;8.614;2023-09-08T13:57:11;32.66;35.91
77056;SHT30;67471;44.918;8.614;2023-09-08T14:00:15;32.75;35.73
77056;SHT30;67471;44.918;8.614;2023-09-08T14:03:19;32.80;35.52
77056;SHT30;67471;44.918;8.614;2023-09-08T14:06:22;32.84;35.47
77056;SHT30;67471;44.918;8.614;2023-09-08T14:09:27;32.84;35.68
77056;SHT30;67471;44.918;8.614;2023-09-08T14:12:31;32.87;35.74
77056;SHT30;67471;44.918;8.614;2023-09-08T14:15:35;32.86;35.99
77056;SHT30;67471;44.918;8.614;2023-09-08T14:18:39;32.89;35.85
77056;SHT30;67471;44.918;8.614;2023-09-08T14:21:43;32.82;35.98
77056;SHT30;67471;44.918;8.614;2023-09-08T14:24:47;32.79;36.08
77056;SHT30;67471;44.918;8.614;2023-09-08T14:27:50;32.82;35.80
77056;SHT30;67471;44.918;8.614;2023-09-08T14:30:54;32.80;36.30
77056;SHT30;67471;44.918;8.614;2023-09-08T14:33:58;32.77;36.36
77056;SHT30;67471;44.918;8.614;2023-09-08T14:37:01;32.77;36.35
77056;SHT30;67471;44.918;8.614;2023-09-08T14:40:05;32.77;36.19
77056;SHT30;67471;44.918;8.614;2023-09-08T14:43:09;32.76;36.10
77056;SHT30;67471;44.918;8.614;2023-09-08T14:46:13;32.79;36.11
77056;SHT30;67471;44.918;8.614;2023-09-08T14:49:16;32.75;35.73
77056;SHT30;67471;44.918;8.614;2023-09-08T14:52:20;32.62;35.91
77056;SHT30;67471;44.918;8.614;2023-09-08T14:55:24;32.59;36.15
77056;SHT30;67471;44.918;8.614;2023-09-08T14:58:27;32.58;36.22
77056;SHT30;67471;44.918;8.614;2023-09-08T15:01:37;32.58;35.81
77056;SHT30;67471;44.918;8.614;2023-09-08T15:04:43;32.51;36.03
77056;SHT30;67471;44.918;8.614;2023-09-08T15:07:47;32.46;36.29
77056;SHT30;67471;44.918;8.614;2023-09-08T15:10:50;32.42;36.22
77056;SHT30;67471;44.918;8.614;2023-09-08T15:13:54;32.38;36.36
77056;SHT30;67471;44.918;8.614;2023-09-08T15:16:58;32.38;36.56
77056;SHT30;67471;44.918;8.614;2023-09-08T15:20:02;32.38;36.34
77056;SHT30;67471;44.918;8.614;2023-09-08T15:23:06;32.36;36.19
77056;SHT30;67471;44.918;8.614;2023-09-08T15:26:10;32.28;35.97
77056;SHT30;67471;44.918;8.614;2023-09-08T15:29:13;32.25;35.91
77056;SHT30;67471;44.918;8.614;2023-09-08T15:32:18;32.22;35.97
77056;SHT30;67471;44.918;8.614;2023-09-08T15:35:21;32.17;36.58
77056;SHT30;67471;44.918;8.614;2023-09-08T15:38:24;32.14;36.87
77056;SHT30;67471;44.918;8.614;2023-09-08T15:41:27;32.19;36.61
77056;SHT30;67471;44.918;8.614;2023-09-08T15:44:31;32.11;36.05
77056;SHT30;67471;44.918;8.614;2023-09-08T15:47:34;32.01;36.22
77056;SHT30;67471;44.918;8.614;2023-09-08T15:50:38;32.05;36.65
77056;SHT30;67471;44.918;8.614;2023-09-08T15:53:41;32.00;36.97
77056;SHT30;67471;44.918;8.614;2023-09-08T15:56:45;31.95;36.85
77056;SHT30;67471;44.918;8.614;2023-09-08T15:59:48;31.91;36.73
77056;SHT30;67471;44.918;8.614;2023-09-08T16:02:51;31.87;37.10
77056;SHT30;67471;44.918;8.614;2023-09-08T16:05:55;31.80;37.34
77056;SHT30;67471;44.918;8.614;2023-09-08T16:08:58;31.80;37.70
77056;SHT30;67471;44.918;8.614;2023-09-08T16:12:20;31.73;37.88
77056;SHT30;67471;44.918;8.614;2023-09-08T16:15:24;31.73;37.59
77056;SHT30;67471;44.918;8.614;2023-09-08T16:18:28;31.63;37.83
77056;SHT30;67471;44.918;8.614;2023-09-08T16:21:32;31.54;38.14
77056;SHT30;67471;44.918;8.614;2023-09-08T16:24:36;31.57;38.47
77056;SHT30;67471;44.918;8.614;2023-09-08T16:27:39;31.50;38.83
77056;SHT30;67471;44.918;8.614;2023-09-08T16:30:43;31.40;38.36
77056;SHT30;67471;44.918;8.614;2023-09-08T16:33:47;31.30;38.56
77056;SHT30;67471;44.918;8.614;2023-09-08T16:36:50;31.27;38.22
77056;SHT30;67471;44.918;8.614;2023-09-08T16:39:59;31.22;38.49
77056;SHT30;67471;44.918;8.614;2023-09-08T16:43:03;31.13;38.76
77056;SHT30;67471;44.918;8.614;2023-09-08T16:46:09;31.10;39.13
77056;SHT30;67471;44.918;8.614;2023-09-08T16:49:13;30.99;39.49
77056;SHT30;67471;44.918;8.614;2023-09-08T16:52:18;30.93;39.99
77056;SHT30;67471;44.918;8.614;2023-09-08T16:55:22;30.86;40.16
77056;SHT30;67471;44.918;8.614;2023-09-08T16:58:25;30.74;40.24
77056;SHT30;67471;44.918;8.614;2023-09-08T17:01:29;30.71;39.90
77056;SHT30;67471;44.918;8.614;2023-09-08T17:04:33;30.72;40.19
77056;SHT30;67471;44.918;8.614;2023-09-08T17:07:36;30.62;40.77
77056;SHT30;67471;44.918;8.614;2023-09-08T17:10:40;30.55;41.12
77056;SHT30;67471;44.918;8.614;2023-09-08T17:13:43;30.45;41.47
77056;SHT30;67471;44.918;8.614;2023-09-08T17:16:47;30.44;41.66
77056;SHT30;67471;44.918;8.614;2023-09-08T17:19:51;30.30;41.98
77056;SHT30;67471;44.918;8.614;2023-09-08T17:23:00;30.21;42.30
77056;SHT30;67471;44.918;8.614;2023-09-08T17:26:04;30.17;42.39
77056;SHT30;67471;44.918;8.614;2023-09-08T17:29:08;30.06;42.47
77056;SHT30;67471;44.918;8.614;2023-09-08T17:32:17;30.01;42.48
77056;SHT30;67471;44.918;8.614;2023-09-08T17:35:20;29.90;42.70
77056;SHT30;67471;44.918;8.614;2023-09-08T17:38:24;29.79;42.93
77056;SHT30;67471;44.918;8.614;2023-09-08T17:41:27;29.79;42.94
77056;SHT30;67471;44.918;8.614;2023-09-08T17:44:31;29.63;43.26
77056;SHT30;67471;44.918;8.614;2023-09-08T17:47:35;29.60;43.19
77056;SHT30;67471;44.918;8.614;2023-09-08T17:50:38;29.49;43.43
77056;SHT30;67471;44.918;8.614;2023-09-08T17:53:42;29.43;43.77
77056;SHT30;67471;44.918;8.614;2023-09-08T17:56:45;29.35;43.85
77056;SHT30;67471;44.918;8.614;2023-09-08T17:59:48;29.25;43.94
77056;SHT30;67471;44.918;8.614;2023-09-08T18:02:51;29.14;44.49
77056;SHT30;67471;44.918;8.614;2023-09-08T18:05:55;29.14;44.66
77056;SHT30;67471;44.918;8.614;2023-09-08T18:08:58;29.01;44.95
77056;SHT30;67471;44.918;8.614;2023-09-08T18:12:02;28.95;44.95
77056;SHT30;67471;44.918;8.614;2023-09-08T18:15:06;28.86;45.05
77056;SHT30;67471;44.918;8.614;2023-09-08T18:18:10;28.77;45.20
77056;SHT30;67471;44.918;8.614;2023-09-08T18:21:14;28.73;45.32
77056;SHT30;67471;44.918;8.614;2023-09-08T18:24:17;28.57;45.60
77056;SHT30;67471;44.918;8.614;2023-09-08T18:27:20;28.56;45.64
77056;SHT30;67471;44.918;8.614;2023-09-08T18:30:24;28.47;45.74
77056;SHT30;67471;44.918;8.614;2023-09-08T18:33:27;28.46;45.93
77056;SHT30;67471;44.918;8.614;2023-09-08T18:36:47;28.42;46.16
77056;SHT30;67471;44.918;8.614;2023-09-08T18:39:51;28.39;46.51
77056;SHT30;67471;44.918;8.614;2023-09-08T18:42:54;28.32;47.01
77056;SHT30;67471;44.918;8.614;2023-09-08T18:45:58;28.22;47.35
77056;SHT30;67471;44.918;8.614;2023-09-08T18:49:01;28.17;47.56
77056;SHT30;67471;44.918;8.614;2023-09-08T18:52:05;28.12;47.46
77056;SHT30;67471;44.918;8.614;2023-09-08T18:55:09;28.06;47.15
77056;SHT30;67471;44.918;8.614;2023-09-08T18:58:12;27.99;47.28
77056;SHT30;67471;44.918;8.614;2023-09-08T19:01:16;27.96;47.31
77056;SHT30;67471;44.918;8.614;2023-09-08T19:04:20;28.01;47.21
77056;SHT30;67471;44.918;8.614;2023-09-08T19:07:24;27.91;47.13
77056;SHT30;67471;44.918;8.614;2023-09-08T19:10:29;27.88;47.22
77056;SHT30;67471;44.918;8.614;2023-09-08T19:13:33;27.88;47.21
77056;SHT30;67471;44.918;8.614;2023-09-08T19:16:36;27.86;47.29
77056;SHT30;67471;44.918;8.614;2023-09-08T19:19:39;27.80;47.38
77056;SHT30;67471;44.918;8.614;2023-09-08T19:22:42;27.82;47.35
77056;SHT30;67471;44.918;8.614;2023-09-08T19:25:45;27.80;47.44
77056;SHT30;67471;44.918;8.614;2023-09-08T19:28:48;27.78;47.59
77056;SHT30;67471;44.918;8.614;2023-09-08T19:31:52;27.69;47.61
77056;SHT30;67471;44.918;8.614;2023-09-08T19:34:56;27.62;48.28
77056;SHT30;67471;44.918;8.614;2023-09-08T19:37:59;27.54;49.42
77056;SHT30;67471;44.918;8.614;2023-09-08T19:41:03;27.48;49.47